sensor_id;sensor_type;location;lat;lon;timestamp;temperature;humidity
15879;DHT22;61999;51.514;14.614;2022-11-20T00:01:33;-4.80;54.40
15879;DHT22;61999;51.514;14.614;2022-11-20T00:04:01;-4.90;54.20
15879;DHT22;61999;51.514;14.614;2022-11-20T00:06:30;-5.00;54.20
15879;DHT22;61999;51.514;14.614;2022-11-20T00:09:00;-5.10;54.10
15879;DHT22;61999;51.514;14.614;2022-11-20T00:11:30;-5.20;54.70
15879;DHT22;61999;51.514;14.614;2022-11-20T00:14:01;-5.20;54.20
15879;DHT22;61999;51.514;14.614;2022-11-20T00:16:31;-5.30;54.40
15879;DHT22;61999;51.514;14.614;2022-11-20T00:19:01;-5.40;54.80
15879;DHT22;61999;51.514;14.614;2022-11-20T00:21:30;-5.30;54.50
15879;DHT22;61999;51.514;14.614;2022-11-20T00:23:59;-5.30;54.70
15879;DHT22;61999;51.514;14.614;2022-11-20T00:26:27;-5.40;54.40
15879;DHT22;61999;51.514;14.614;2022-11-20T00:28:57;-5.40;55.00
15879;DHT22;61999;51.514;14.614;2022-11-20T00:31:29;-5.40;54.70
15879;DHT22;61999;51.514;14.614;2022-11-20T00:33:59;-5.50;54.50
15879;DHT22;61999;51.514;14.614;2022-11-20T00:36:28;-5.50;54.90
15879;DHT22;61999;51.514;14.614;2022-11-20T00:39:00;-5.60;54.50
15879;DHT22;61999;51.514;14.614;2022-11-20T00:41:28;-5.40;55.10
15879;DHT22;61999;51.514;14.614;2022-11-20T00:43:57;-5.10;54.40
15879;DHT22;61999;51.514;14.614;2022-11-20T00:46:26;-5.10;54.30
15879;DHT22;61999;51.514;14.614;2022-11-20T00:48:55;-5.00;54.20
15879;DHT22;61999;51.514;14.614;2022-11-20T00:51:25;-4.70;53.50
15879;DHT22;61999;51.514;14.614;2022-11-20T00:53:57;-4.70;53.30
15879;DHT22;61999;51.514;14.614;2022-11-20T00:56:26;-4.70;53.20
15879;DHT22;61999;51.514;14.614;2022-11-20T00:58:54;-4.90;53.40
15879;DHT22;61999;51.514;14.614;2022-11-20T01:01:24;-5.10;53.60
15879;DHT22;61999;51.514;14.614;2022-11-20T01:03:55;-5.30;54.10
15879;DHT22;61999;51.514;14.614;2022-11-20T01:06:27;-5.30;54.20
15879;DHT22;61999;51.514;14.614;2022-11-20T01:08:59;-5.30;54.30
15879;DHT22;61999;51.514;14.614;2022-11-20T01:11:29;-5.20;54.20
15879;DHT22;61999;51.514;14.614;2022-11-20T01:13:59;-5.30;54.10
15879;DHT22;61999;51.514;14.614;2022-11-20T01:16:32;-5.40;54.30
15879;DHT22;61999;51.514;14.614;2022-11-20T01:19:04;-5.50;54.50
15879;DHT22;61999;51.514;14.614;2022-11-20T01:21:36;-5.40;54.60
15879;DHT22;61999;51.514;14.614;2022-11-20T01:24:10;-5.30;54.40
15879;DHT22;61999;51.514;14.614;2022-11-20T01:26:41;-5.30;54.20
15879;DHT22;61999;51.514;14.614;2022-11-20T01:29:13;-5.40;54.50
15879;DHT22;61999;51.514;14.614;2022-11-20T01:31:43;-5.60;54.80
15879;DHT22;61999;51.514;14.614;2022-11-20T01:34:15;-5.70;55.00
15879;DHT22;61999;51.514;14.614;2022-11-20T01:36:45;-5.90;55.20
15879;DHT22;61999;51.514;14.614;2022-11-20T01:39:17;-5.90;55.40
15879;DHT22;61999;51.514;14.614;2022-11-20T01:41:47;-5.90;55.50
15879;DHT22;61999;51.514;14.614;2022-11-20T01:44:50;-5.90;55.30
15879;DHT22;61999;51.514;14.614;2022-11-20T01:47:28;-6.00;55.30
15879;DHT22;61999;51.514;14.614;2022-11-20T01:50:04;-5.80;55.20
15879;DHT22;61999;51.514;14.614;2022-11-20T01:52:41;-5.80;55.30
15879;DHT22;61999;51.514;14.614;2022-11-20T01:55:17;-5.70;55.10
15879;DHT22;61999;51.514;14.614;2022-11-20T01:57:48;-5.80;55.10
15879;DHT22;61999;51.514;14.614;2022-11-20T02:00:19;-5.80;55.20
15879;DHT22;61999;51.514;14.614;2022-11-20T02:02:51;-5.80;55.40
15879;DHT22;61999;51.514;14.614;2022-11-20T02:05:27;-5.80;55.40
15879;DHT22;61999;51.514;14.614;2022-11-20T02:07:59;-6.00;55.60
15879;DHT22;61999;51.514;14.614;2022-11-20T02:10:29;-6.10;55.60
15879;DHT22;61999;51.514;14.614;2022-11-20T02:12:58;-6.20;55.90
15879;DHT22;61999;51.514;14.614;2022-11-20T02:15:45;-6.30;56.00
15879;DHT22;61999;51.514;14.614;2022-11-20T02:18:14;-6.30;55.90
15879;DHT22;61999;51.514;14.614;2022-11-20T02:20:48;-6.30;56.20
15879;DHT22;61999;51.514;14.614;2022-11-20T02:23:27;-6.30;56.40
15879;DHT22;61999;51.514;14.614;2022-11-20T02:26:05;-6.40;55.90
15879;DHT22;61999;51.514;14.614;2022-11-20T02:28:36;-6.50;56.20
15879;DHT22;61999;51.514;14.614;2022-11-20T02:31:06;-6.60;55.90
15879;DHT22;61999;51.514;14.614;2022-11-20T02:33:34;-6.60;56.10
15879;DHT22;61999;51.514;14.614;2022-11-20T02:36:02;-6.50;56.70
15879;DHT22;61999;51.514;14.614;2022-11-20T02:38:31;-6.60;56.20
15879;DHT22;61999;51.514;14.614;2022-11-20T02:40:59;-6.70;55.90
15879;DHT22;61999;51.514;14.614;2022-11-20T02:43:28;-6.60;57.00
15879;DHT22;61999;51.514;14.614;2022-11-20T02:45:56;-6.60;56.20
15879;DHT22;61999;51.514;14.614;2022-11-20T02:48:24;-6.70;55.90
15879;DHT22;61999;51.514;14.614;2022-11-20T02:50:53;-6.60;57.20
15879;DHT22;61999;51.514;14.614;2022-11-20T02:53:21;-6.60;56.20
15879;DHT22;61999;51.514;14.614;2022-11-20T02:55:49;-6.60;56.60
15879;DHT22;61999;51.514;14.614;2022-11-20T02:58:17;-6.60;56.30
15879;DHT22;61999;51.514;14.614;2022-11-20T03:00:46;-6.50;56.90
15879;DHT22;61999;51.514;14.614;2022-11-20T03:03:14;-6.30;57.20
15879;DHT22;61999;51.514;14.614;2022-11-20T03:05:42;-6.10;56.90
15879;DHT22;61999;51.514;14.614;2022-11-20T03:08:10;-5.80;56.10
15879;DHT22;61999;51.514;14.614;2022-11-20T03:10:38;-5.80;55.90
15879;DHT22;61999;51.514;14.614;2022-11-20T03:13:06;-5.70;55.80
15879;DHT22;61999;51.514;14.614;2022-11-20T03:15:35;-5.70;56.00
15879;DHT22;61999;51.514;14.614;2022-11-20T03:18:05;-5.80;55.90
15879;DHT22;61999;51.514;14.614;2022-11-20T03:20:33;-5.80;56.50
15879;DHT22;61999;51.514;14.614;2022-11-20T03:23:01;-5.90;56.40
15879;DHT22;61999;51.514;14.614;2022-11-20T03:25:30;-5.90;56.80
15879;DHT22;61999;51.514;14.614;2022-11-20T03:27:58;-5.90;56.60
15879;DHT22;61999;51.514;14.614;2022-11-20T03:30:26;-5.80;56.40
15879;DHT22;61999;51.514;14.614;2022-11-20T03:32:56;-5.90;56.30
15879;DHT22;61999;51.514;14.614;2022-11-20T03:35:25;-6.00;56.40
15879;DHT22;61999;51.514;14.614;2022-11-20T03:37:53;-6.00;56.30
15879;DHT22;61999;51.514;14.614;2022-11-20T03:40:21;-6.10;56.20
15879;DHT22;61999;51.514;14.614;2022-11-20T03:42:49;-6.10;56.10
15879;DHT22;61999;51.514;14.614;2022-11-20T03:45:17;-6.20;56.30
15879;DHT22;61999;51.514;14.614;2022-11-20T03:47:46;-6.40;56.70
15879;DHT22;61999;51.514;14.614;2022-11-20T03:50:14;-6.60;57.00
15879;DHT22;61999;51.514;14.614;2022-11-20T03:52:43;-6.60;57.30
15879;DHT22;61999;51.514;14.614;2022-11-20T03:55:11;-6.70;57.30
15879;DHT22;61999;51.514;14.614;2022-11-20T03:57:39;-6.80;57.30
15879;DHT22;61999;51.514;14.614;2022-11-20T04:00:08;-6.70;57.50
15879;DHT22;61999;51.514;14.614;2022-11-20T04:02:37;-6.60;57.30
15879;DHT22;61999;51.514;14.614;2022-11-20T04:05:06;-6.60;57.50
15879;DHT22;61999;51.514;14.614;2022-11-20T04:07:34;-6.60;57.60
15879;DHT22;61999;51.514;14.614;2022-11-20T04:10:05;-6.60;57.50
15879;DHT22;61999;51.514;14.614;2022-11-20T04:12:33;-6.50;57.50
15879;DHT22;61999;51.514;14.614;2022-11-20T04:15:01;-6.30;57.20
15879;DHT22;61999;51.514;14.614;2022-11-20T04:17:29;-6.20;57.10
15879;DHT22;61999;51.514;14.614;2022-11-20T04:19:57;-6.10;56.70
15879;DHT22;61999;51.514;14.614;2022-11-20T04:22:25;-6.10;56.70
15879;DHT22;61999;51.514;14.614;2022-11-20T04:24:53;-6.10;57.10
15879;DHT22;61999;51.514;14.614;2022-11-20T04:27:23;-6.20;57.20
15879;DHT22;61999;51.514;14.614;2022-11-20T04:29:51;-6.20;57.30
15879;DHT22;61999;51.514;14.614;2022-11-20T04:32:18;-6.30;57.20
15879;DHT22;61999;51.514;14.614;2022-11-20T04:34:46;-6.40;57.60
15879;DHT22;61999;51.514;14.614;2022-11-20T04:37:14;-6.60;57.50
15879;DHT22;61999;51.514;14.614;2022-11-20T04:39:42;-6.60;58.00
15879;DHT22;61999;51.514;14.614;2022-11-20T04:42:11;-6.80;57.20
15879;DHT22;61999;51.514;14.614;2022-11-20T04:44:58;-7.00;57.00
15879;DHT22;61999;51.514;14.614;2022-11-20T04:47:26;-7.00;57.90
15879;DHT22;61999;51.514;14.614;2022-11-20T04:49:54;-7.00;57.80
15879;DHT22;61999;51.514;14.614;2022-11-20T04:52:22;-6.90;58.10
15879;DHT22;61999;51.514;14.614;2022-11-20T04:54:50;-7.00;57.50
15879;DHT22;61999;51.514;14.614;2022-11-20T04:57:20;-6.90;58.00
15879;DHT22;61999;51.514;14.614;2022-11-20T04:59:48;-7.00;58.40
15879;DHT22;61999;51.514;14.614;2022-11-20T05:02:18;-6.90;58.40
15879;DHT22;61999;51.514;14.614;2022-11-20T05:04:46;-6.80;58.50
15879;DHT22;61999;51.514;14.614;2022-11-20T05:07:14;-6.90;58.60
15879;DHT22;61999;51.514;14.614;2022-11-20T05:09:42;-6.90;58.60
15879;DHT22;61999;51.514;14.614;2022-11-20T05:12:10;-7.00;58.50
15879;DHT22;61999;51.514;14.614;2022-11-20T05:14:37;-7.00;58.10
15879;DHT22;61999;51.514;14.614;2022-11-20T05:17:06;-7.10;57.90
15879;DHT22;61999;51.514;14.614;2022-11-20T05:19:38;-7.10;57.80
15879;DHT22;61999;51.514;14.614;2022-11-20T05:22:06;-7.10;57.60
15879;DHT22;61999;51.514;14.614;2022-11-20T05:24:34;-7.20;57.60
15879;DHT22;61999;51.514;14.614;2022-11-20T05:27:02;-7.20;57.50
15879;DHT22;61999;51.514;14.614;2022-11-20T05:29:30;-7.30;57.50
15879;DHT22;61999;51.514;14.614;2022-11-20T05:31:58;-7.30;57.70
15879;DHT22;61999;51.514;14.614;2022-11-20T05:34:26;-7.20;58.20
15879;DHT22;61999;51.514;14.614;2022-11-20T05:36:55;-7.20;57.80
15879;DHT22;61999;51.514;14.614;2022-11-20T05:39:23;-7.20;57.60
15879;DHT22;61999;51.514;14.614;2022-11-20T05:41:51;-7.30;57.60
15879;DHT22;61999;51.514;14.614;2022-11-20T05:44:39;-7.30;57.60
15879;DHT22;61999;51.514;14.614;2022-11-20T05:47:08;-7.20;57.90
15879;DHT22;61999;51.514;14.614;2022-11-20T05:49:36;-7.30;57.80
15879;DHT22;61999;51.514;14.614;2022-11-20T05:52:06;-7.30;57.90
15879;DHT22;61999;51.514;14.614;2022-11-20T05:54:34;-7.20;58.40
15879;DHT22;61999;51.514;14.614;2022-11-20T05:57:02;-7.20;58.10
15879;DHT22;61999;51.514;14.614;2022-11-20T05:59:30;-7.30;57.70
15879;DHT22;61999;51.514;14.614;2022-11-20T06:01:58;-7.30;57.70
15879;DHT22;61999;51.514;14.614;2022-11-20T06:04:26;-7.40;57.50
15879;DHT22;61999;51.514;14.614;2022-11-20T06:06:54;-7.40;57.50
15879;DHT22;61999;51.514;14.614;2022-11-20T06:09:23;-7.40;57.50
15879;DHT22;61999;51.514;14.614;2022-11-20T06:11:51;-7.50;58.30
15879;DHT22;61999;51.514;14.614;2022-11-20T06:14:19;-7.50;57.90
15879;DHT22;61999;51.514;14.614;2022-11-20T06:16:47;-7.60;58.00
15879;DHT22;61999;51.514;14.614;2022-11-20T06:20:01;-7.50;58.00
15879;DHT22;61999;51.514;14.614;2022-11-20T06:23:45;-7.60;57.80
15879;DHT22;61999;51.514;14.614;2022-11-20T06:26:16;-7.60;58.00
15879;DHT22;61999;51.514;14.614;2022-11-20T06:28:46;-7.60;57.90
15879;DHT22;61999;51.514;14.614;2022-11-20T06:31:15;-7.50;58.10
15879;DHT22;61999;51.514;14.614;2022-11-20T06:33:45;-7.50;58.00
15879;DHT22;61999;51.514;14.614;2022-11-20T06:36:15;-7.50;58.00
15879;DHT22;61999;51.514;14.614;2022-11-20T06:38:45;-7.50;58.00
15879;DHT22;61999;51.514;14.614;2022-11-20T06:41:16;-7.50;58.00
15879;DHT22;61999;51.514;14.614;2022-11-20T06:43:46;-7.50;58.20
15879;DHT22;61999;51.514;14.614;2022-11-20T06:46:16;-7.60;59.20
15879;DHT22;61999;51.514;14.614;2022-11-20T06:48:45;-7.60;59.60
15879;DHT22;61999;51.514;14.614;2022-11-20T06:51:14;-7.70;60.00
15879;DHT22;61999;51.514;14.614;2022-11-20T06:53:46;-7.60;59.50
15879;DHT22;61999;51.514;14.614;2022-11-20T06:56:14;-7.60;59.20
15879;DHT22;61999;51.514;14.614;2022-11-20T06:58:43;-7.50;59.10
15879;DHT22;61999;51.514;14.614;2022-11-20T07:01:12;-7.50;58.90
15879;DHT22;61999;51.514;14.614;2022-11-20T07:03:42;-7.40;59.00
15879;DHT22;61999;51.514;14.614;2022-11-20T07:06:10;-7.40;59.00
15879;DHT22;61999;51.514;14.614;2022-11-20T07:08:39;-7.40;58.90
15879;DHT22;61999;51.514;14.614;2022-11-20T07:11:07;-7.30;58.90
15879;DHT22;61999;51.514;14.614;2022-11-20T07:13:37;-7.30;59.00
15879;DHT22;61999;51.514;14.614;2022-11-20T07:16:06;-7.20;60.10
15879;DHT22;61999;51.514;14.614;2022-11-20T07:18:35;-7.10;61.10
15879;DHT22;61999;51.514;14.614;2022-11-20T07:21:05;-7.00;61.00
15879;DHT22;61999;51.514;14.614;2022-11-20T07:23:36;-6.70;61.30
15879;DHT22;61999;51.514;14.614;2022-11-20T07:26:05;-6.50;61.30
15879;DHT22;61999;51.514;14.614;2022-11-20T07:28:33;-6.30;61.50
15879;DHT22;61999;51.514;14.614;2022-11-20T07:31:04;-6.10;61.60
15879;DHT22;61999;51.514;14.614;2022-11-20T07:33:33;-5.80;61.40
15879;DHT22;61999;51.514;14.614;2022-11-20T07:36:01;-5.60;61.40
15879;DHT22;61999;51.514;14.614;2022-11-20T07:38:30;-5.30;61.50
15879;DHT22;61999;51.514;14.614;2022-11-20T07:40:58;-5.10;61.00
15879;DHT22;61999;51.514;14.614;2022-11-20T07:43:28;-4.90;61.00
15879;DHT22;61999;51.514;14.614;2022-11-20T07:45:56;-4.60;61.00
15879;DHT22;61999;51.514;14.614;2022-11-20T07:48:26;-4.40;61.10
15879;DHT22;61999;51.514;14.614;2022-11-20T07:50:55;-4.20;60.80
15879;DHT22;61999;51.514;14.614;2022-11-20T07:53:23;-4.00;60.60
15879;DHT22;61999;51.514;14.614;2022-11-20T07:55:51;-3.70;58.50
15879;DHT22;61999;51.514;14.614;2022-11-20T07:58:19;-3.50;57.20
15879;DHT22;61999;51.514;14.614;2022-11-20T08:00:48;-3.40;57.50
15879;DHT22;61999;51.514;14.614;2022-11-20T08:03:16;-3.10;55.50
15879;DHT22;61999;51.514;14.614;2022-11-20T08:05:48;-2.90;55.70
15879;DHT22;61999;51.514;14.614;2022-11-20T08:08:16;-2.60;53.70
15879;DHT22;61999;51.514;14.614;2022-11-20T08:10:44;-2.40;53.00
15879;DHT22;61999;51.514;14.614;2022-11-20T08:13:12;-2.40;52.80
15879;DHT22;61999;51.514;14.614;2022-11-20T08:15:58;-2.30;52.20
15879;DHT22;61999;51.514;14.614;2022-11-20T08:18:26;-2.50;52.20
15879;DHT22;61999;51.514;14.614;2022-11-20T08:20:58;-2.40;52.50
15879;DHT22;61999;51.514;14.614;2022-11-20T08:23:28;-2.20;51.40
15879;DHT22;61999;51.514;14.614;2022-11-20T08:25:56;-2.30;52.20
15879;DHT22;61999;51.514;14.614;2022-11-20T08:28:24;-2.20;51.70
15879;DHT22;61999;51.514;14.614;2022-11-20T08:30:58;-2.20;51.60
15879;DHT22;61999;51.514;14.614;2022-11-20T08:33:27;-2.10;51.30
15879;DHT22;61999;51.514;14.614;2022-11-20T08:35:59;-1.80;51.00
15879;DHT22;61999;51.514;14.614;2022-11-20T08:38:28;-1.60;50.50
15879;DHT22;61999;51.514;14.614;2022-11-20T08:40:57;-1.60;50.00
15879;DHT22;61999;51.514;14.614;2022-11-20T08:43:43;-1.60;50.30
15879;DHT22;61999;51.514;14.614;2022-11-20T08:46:11;-1.30;49.60
15879;DHT22;61999;51.514;14.614;2022-11-20T08:48:40;-1.20;49.10
15879;DHT22;61999;51.514;14.614;2022-11-20T08:51:10;-1.10;48.60
15879;DHT22;61999;51.514;14.614;2022-11-20T08:53:39;-1.00;48.30
15879;DHT22;61999;51.514;14.614;2022-11-20T08:56:07;-0.90;48.10
15879;DHT22;61999;51.514;14.614;2022-11-20T08:58:36;-1.00;48.00
15879;DHT22;61999;51.514;14.614;2022-11-20T09:01:14;-0.80;47.10
15879;DHT22;61999;51.514;14.614;2022-11-20T09:03:42;-0.90;47.50
15879;DHT22;61999;51.514;14.614;2022-11-20T09:06:12;-1.10;47.60
15879;DHT22;61999;51.514;14.614;2022-11-20T09:08:41;-1.10;48.00
15879;DHT22;61999;51.514;14.614;2022-11-20T09:11:09;-1.10;47.90
15879;DHT22;61999;51.514;14.614;2022-11-20T09:13:37;-1.20;49.70
15879;DHT22;61999;51.514;14.614;2022-11-20T09:16:08;-1.20;48.30
15879;DHT22;61999;51.514;14.614;2022-11-20T09:18:37;-1.20;48.10
15879;DHT22;61999;51.514;14.614;2022-11-20T09:21:07;-1.00;48.20
15879;DHT22;61999;51.514;14.614;2022-11-20T09:23:39;-1.00;48.00
15879;DHT22;61999;51.514;14.614;2022-11-20T09:26:10;-1.00;48.70
15879;DHT22;61999;51.514;14.614;2022-11-20T09:28:39;-0.90;48.30
15879;DHT22;61999;51.514;14.614;2022-11-20T09:31:08;-0.50;49.20
15879;DHT22;61999;51.514;14.614;2022-11-20T09:33:43;0.00;47.00
15879;DHT22;61999;51.514;14.614;2022-11-20T09:36:11;0.40;45.30
15879;DHT22;61999;51.514;14.614;2022-11-20T09:38:41;0.50;45.20
15879;DHT22;61999;51.514;14.614;2022-11-20T09:41:27;0.40;46.50
15879;DHT22;61999;51.514;14.614;2022-11-20T09:44:21;0.80;44.20
15879;DHT22;61999;51.514;14.614;2022-11-20T09:47:04;1.00;43.20
15879;DHT22;61999;51.514;14.614;2022-11-20T09:49:53;0.90;43.70
15879;DHT22;61999;51.514;14.614;2022-11-20T09:52:38;0.90;43.60
15879;DHT22;61999;51.514;14.614;2022-11-20T09:55:13;0.70;43.80
15879;DHT22;61999;51.514;14.614;2022-11-20T09:57:45;0.50;44.10
15879;DHT22;61999;51.514;14.614;2022-11-20T10:00:16;0.40;44.30
15879;DHT22;61999;51.514;14.614;2022-11-20T10:02:52;0.40;44.40
15879;DHT22;61999;51.514;14.614;2022-11-20T10:05:28;0.50;44.10
15879;DHT22;61999;51.514;14.614;2022-11-20T10:08:10;0.40;44.90
15879;DHT22;61999;51.514;14.614;2022-11-20T10:10:47;0.60;44.90
15879;DHT22;61999;51.514;14.614;2022-11-20T10:13:32;1.10;43.40
15879;DHT22;61999;51.514;14.614;2022-11-20T10:16:22;1.00;42.60
15879;DHT22;61999;51.514;14.614;2022-11-20T10:19:05;1.00;42.80
15879;DHT22;61999;51.514;14.614;2022-11-20T10:21:55;0.80;43.60
15879;DHT22;61999;51.514;14.614;2022-11-20T10:24:48;1.10;42.90
15879;DHT22;61999;51.514;14.614;2022-11-20T10:27:48;1.30;42.20
15879;DHT22;61999;51.514;14.614;2022-11-20T10:30:27;1.50;42.10
15879;DHT22;61999;51.514;14.614;2022-11-20T10:33:05;1.80;41.50
15879;DHT22;61999;51.514;14.614;2022-11-20T10:35:43;1.90;41.60
15879;DHT22;61999;51.514;14.614;2022-11-20T10:38:19;2.20;40.70
15879;DHT22;61999;51.514;14.614;2022-11-20T10:40:53;2.40;41.00
15879;DHT22;61999;51.514;14.614;2022-11-20T10:43:46;2.60;40.70
15879;DHT22;61999;51.514;14.614;2022-11-20T10:46:20;2.90;40.30
15879;DHT22;61999;51.514;14.614;2022-11-20T10:48:51;3.00;40.50
15879;DHT22;61999;51.514;14.614;2022-11-20T10:51:30;3.30;40.40
15879;DHT22;61999;51.514;14.614;2022-11-20T10:54:12;3.70;38.10
15879;DHT22;61999;51.514;14.614;2022-11-20T10:56:50;3.70;39.70
15879;DHT22;61999;51.514;14.614;2022-11-20T10:59:41;3.90;39.70
15879;DHT22;61999;51.514;14.614;2022-11-20T11:02:21;4.30;38.20
15879;DHT22;61999;51.514;14.614;2022-11-20T11:04:51;4.80;37.10
15879;DHT22;61999;51.514;14.614;2022-11-20T11:07:23;5.00;37.20
15879;DHT22;61999;51.514;14.614;2022-11-20T11:09:56;5.20;37.10
15879;DHT22;61999;51.514;14.614;2022-11-20T11:12:26;5.40;38.20
15879;DHT22;61999;51.514;14.614;2022-11-20T11:14:57;5.80;36.80
15879;DHT22;61999;51.514;14.614;2022-11-20T11:17:27;6.20;34.80
15879;DHT22;61999;51.514;14.614;2022-11-20T11:20:06;6.40;34.60
15879;DHT22;61999;51.514;14.614;2022-11-20T11:22:45;6.60;33.20
15879;DHT22;61999;51.514;14.614;2022-11-20T11:25:27;6.60;34.60
15879;DHT22;61999;51.514;14.614;2022-11-20T11:27:58;6.60;36.10
15879;DHT22;61999;51.514;14.614;2022-11-20T11:30:30;6.90;33.80
15879;DHT22;61999;51.514;14.614;2022-11-20T11:33:11;7.10;32.80
15879;DHT22;61999;51.514;14.614;2022-11-20T11:35:48;7.30;32.60
15879;DHT22;61999;51.514;14.614;2022-11-20T11:38:21;6.90;32.90
15879;DHT22;61999;51.514;14.614;2022-11-20T11:40:55;6.60;34.10
15879;DHT22;61999;51.514;14.614;2022-11-20T11:43:25;6.50;36.00
15879;DHT22;61999;51.514;14.614;2022-11-20T11:46:33;6.80;33.50
15879;DHT22;61999;51.514;14.614;2022-11-20T11:49:16;7.10;33.40
15879;DHT22;61999;51.514;14.614;2022-11-20T11:51:58;7.30;33.20
15879;DHT22;61999;51.514;14.614;2022-11-20T11:54:34;7.60;32.50
15879;DHT22;61999;51.514;14.614;2022-11-20T11:57:12;7.70;33.10
15879;DHT22;61999;51.514;14.614;2022-11-20T11:59:54;7.70;33.10
15879;DHT22;61999;51.514;14.614;2022-11-20T12:02:36;7.90;31.80
15879;DHT22;61999;51.514;14.614;2022-11-20T12:05:17;8.30;30.80
15879;DHT22;61999;51.514;14.614;2022-11-20T12:07:50;8.30;30.20
15879;DHT22;61999;51.514;14.614;2022-11-20T12:10:34;8.40;29.80
15879;DHT22;61999;51.514;14.614;2022-11-20T12:13:17;8.30;29.50
15879;DHT22;61999;51.514;14.614;2022-11-20T12:15:53;7.70;30.70
15879;DHT22;61999;51.514;14.614;2022-11-20T12:18:25;7.60;30.90
15879;DHT22;61999;51.514;14.614;2022-11-20T12:21:06;7.50;31.40
15879;DHT22;61999;51.514;14.614;2022-11-20T12:23:53;7.50;30.60
15879;DHT22;61999;51.514;14.614;2022-11-20T12:26:43;7.30;31.50
15879;DHT22;61999;51.514;14.614;2022-11-20T12:29:32;7.20;32.10
15879;DHT22;61999;51.514;14.614;2022-11-20T12:35:48;7.40;31.50
15879;DHT22;61999;51.514;14.614;2022-11-20T12:38:45;7.40;31.90
15879;DHT22;61999;51.514;14.614;2022-11-20T12:41:43;7.20;31.20
15879;DHT22;61999;51.514;14.614;2022-11-20T12:45:02;7.00;32.40
15879;DHT22;61999;51.514;14.614;2022-11-20T12:50:55;7.00;30.40
15879;DHT22;61999;51.514;14.614;2022-11-20T12:53:52;6.70;30.90
15879;DHT22;61999;51.514;14.614;2022-11-20T12:56:37;6.10;31.60
15879;DHT22;61999;51.514;14.614;2022-11-20T12:59:23;5.70;31.60
15879;DHT22;61999;51.514;14.614;2022-11-20T13:02:13;5.30;32.40
15879;DHT22;61999;51.514;14.614;2022-11-20T13:05:01;5.10;32.70
15879;DHT22;61999;51.514;14.614;2022-11-20T13:07:49;4.60;33.70
15879;DHT22;61999;51.514;14.614;2022-11-20T13:10:25;4.40;34.30
15879;DHT22;61999;51.514;14.614;2022-11-20T13:13:03;4.10;34.90
15879;DHT22;61999;51.514;14.614;2022-11-20T13:15:48;3.80;35.40
15879;DHT22;61999;51.514;14.614;2022-11-20T13:18:19;3.60;36.30
15879;DHT22;61999;51.514;14.614;2022-11-20T13:20:47;3.70;36.40
15879;DHT22;61999;51.514;14.614;2022-11-20T13:23:27;3.80;35.70
15879;DHT22;61999;51.514;14.614;2022-11-20T13:26:06;3.60;35.80
15879;DHT22;61999;51.514;14.614;2022-11-20T13:28:43;3.60;36.30
15879;DHT22;61999;51.514;14.614;2022-11-20T13:31:28;3.70;36.20
15879;DHT22;61999;51.514;14.614;2022-11-20T13:33:59;3.60;35.60
15879;DHT22;61999;51.514;14.614;2022-11-20T13:36:29;3.50;36.00
15879;DHT22;61999;51.514;14.614;2022-11-20T13:39:00;3.50;36.20
15879;DHT22;61999;51.514;14.614;2022-11-20T13:41:30;3.60;36.30
15879;DHT22;61999;51.514;14.614;2022-11-20T13:44:10;3.70;36.00
15879;DHT22;61999;51.514;14.614;2022-11-20T13:46:42;3.60;36.10
15879;DHT22;61999;51.514;14.614;2022-11-20T13:49:18;3.40;36.40
15879;DHT22;61999;51.514;14.614;2022-11-20T13:51:55;3.20;36.80
15879;DHT22;61999;51.514;14.614;2022-11-20T13:54:58;3.20;36.90
15879;DHT22;61999;51.514;14.614;2022-11-20T13:57:47;2.40;37.90
15879;DHT22;61999;51.514;14.614;2022-11-20T14:00:26;1.90;39.10
15879;DHT22;61999;51.514;14.614;2022-11-20T14:03:07;1.50;40.00
15879;DHT22;61999;51.514;14.614;2022-11-20T14:05:49;1.40;40.50
15879;DHT22;61999;51.514;14.614;2022-11-20T14:08:27;1.30;40.70
15879;DHT22;61999;51.514;14.614;2022-11-20T14:11:12;0.90;41.00
15879;DHT22;61999;51.514;14.614;2022-11-20T14:13:55;0.40;42.10
15879;DHT22;61999;51.514;14.614;2022-11-20T14:16:27;0.10;43.00
15879;DHT22;61999;51.514;14.614;2022-11-20T14:18:57;-0.10;43.50
15879;DHT22;61999;51.514;14.614;2022-11-20T14:21:45;-0.10;43.60
15879;DHT22;61999;51.514;14.614;2022-11-20T14:24:18;0.10;43.30
15879;DHT22;61999;51.514;14.614;2022-11-20T14:26:57;0.10;43.20
15879;DHT22;61999;51.514;14.614;2022-11-20T14:29:29;-0.30;44.30
15879;DHT22;61999;51.514;14.614;2022-11-20T14:32:01;-0.50;45.00
15879;DHT22;61999;51.514;14.614;2022-11-20T14:34:41;-0.60;46.00
15879;DHT22;61999;51.514;14.614;2022-11-20T14:37:19;-0.60;45.70
15879;DHT22;61999;51.514;14.614;2022-11-20T14:39:52;-0.90;45.90
15879;DHT22;61999;51.514;14.614;2022-11-20T14:42:24;-1.10;46.20
15879;DHT22;61999;51.514;14.614;2022-11-20T14:44:56;-1.20;46.50
15879;DHT22;61999;51.514;14.614;2022-11-20T14:47:26;-1.10;46.70
15879;DHT22;61999;51.514;14.614;2022-11-20T14:49:58;-0.90;46.50
15879;DHT22;61999;51.514;14.614;2022-11-20T14:52:27;-1.10;46.60
15879;DHT22;61999;51.514;14.614;2022-11-20T14:54:58;-1.20;46.80
15879;DHT22;61999;51.514;14.614;2022-11-20T14:57:30;-1.30;47.70
15879;DHT22;61999;51.514;14.614;2022-11-20T15:00:19;-1.20;47.10
15879;DHT22;61999;51.514;14.614;2022-11-20T15:02:49;-1.30;47.10
15879;DHT22;61999;51.514;14.614;2022-11-20T15:05:20;-1.40;47.40
15879;DHT22;61999;51.514;14.614;2022-11-20T15:07:50;-1.50;47.50
15879;DHT22;61999;51.514;14.614;2022-11-20T15:10:22;-1.50;47.80
15879;DHT22;61999;51.514;14.614;2022-11-20T15:12:54;-1.50;47.90
15879;DHT22;61999;51.514;14.614;2022-11-20T15:15:29;-1.70;48.10
15879;DHT22;61999;51.514;14.614;2022-11-20T15:18:01;-1.70;48.10
15879;DHT22;61999;51.514;14.614;2022-11-20T15:20:31;-1.60;48.20
15879;DHT22;61999;51.514;14.614;2022-11-20T15:23:01;-1.60;48.00
15879;DHT22;61999;51.514;14.614;2022-11-20T15:25:29;-1.50;48.00
15879;DHT22;61999;51.514;14.614;2022-11-20T15:27:58;-1.50;47.90
15879;DHT22;61999;51.514;14.614;2022-11-20T15:30:26;-1.60;47.90
15879;DHT22;61999;51.514;14.614;2022-11-20T15:32:54;-1.60;48.10
15879;DHT22;61999;51.514;14.614;2022-11-20T15:35:22;-1.80;48.20
15879;DHT22;61999;51.514;14.614;2022-11-20T15:37:50;-1.90;48.40
15879;DHT22;61999;51.514;14.614;2022-11-20T15:40:18;-2.10;48.40
15879;DHT22;61999;51.514;14.614;2022-11-20T15:42:46;-2.00;48.70
15879;DHT22;61999;51.514;14.614;2022-11-20T15:45:31;-1.90;48.40
15879;DHT22;61999;51.514;14.614;2022-11-20T15:48:05;-1.90;48.20
15879;DHT22;61999;51.514;14.614;2022-11-20T15:50:39;-1.90;48.40
15879;DHT22;61999;51.514;14.614;2022-11-20T15:53:12;-1.70;48.20
15879;DHT22;61999;51.514;14.614;2022-11-20T15:55:40;-1.60;47.90
15879;DHT22;61999;51.514;14.614;2022-11-20T15:58:08;-1.70;48.00
15879;DHT22;61999;51.514;14.614;2022-11-20T16:00:38;-1.80;48.10
15879;DHT22;61999;51.514;14.614;2022-11-20T16:03:09;-1.80;48.10
15879;DHT22;61999;51.514;14.614;2022-11-20T16:05:38;-1.80;48.10